Leon Corners, Illinois
Current Conditions -  °F | °C
As of 7:35 PM on Friday 31 Oct 2014 (Local Time) from KSQI Reporting Station
Clear Clear  
Wind Chill: 27°   Ceiling: Unl
Heat Index: 34°   Visibility: 10mi
Dew Point: 18°   Wind: 8mph
Humidity: 52%   Direction: 350°N
Pressure: 30.4"   Gusts: NA
Location:  41.5909°N, 89.9498°W
Report Text: KSQI 010035Z AUTO 35007KT 10SM CLR 01/M08 A3040 RMK AO1
Loading
Personal Weather Stations






























Interactive Weather Map
Tropical Storm Tracking
New forecast layout! Learn more

10-Day Weather Forecast

Advertisements
Track Severe Weather on mobile